Time;durP1;ratioP1;P1;durP2;ratioP2;P2;SDS_P1;SDS_P2;PMS_P1;PMS_P2;Temp;Humidity;BMP_temperature;BMP_pressure;BME280_temperature;BME280_humidity;BME280_pressure;Samples;Min_cycle;Max_cycle;Signal;HPM_P1;HPM_P2
2022/08/04 00:01:29;;;;;;;3.25;2.10;;;22.10;99.90;;;;;;4953380;28;20195;-88
2022/08/04 00:04:09;;;;;;;3.70;2.50;;;22.00;99.90;;;;;;4953334;28;20236;-89
2022/08/04 00:07:07;;;;;;;2.95;2.22;;;22.00;99.90;;;;;;4948695;28;20296;-88
2022/08/04 00:09:58;;;;;;;6.22;2.55;;;21.90;99.90;;;;;;4940662;28;20628;-88
2022/08/04 00:12:29;;;;;;;3.70;2.20;;;21.90;99.90;;;;;;4952764;28;20704;-89
2022/08/04 00:14:59;;;;;;;6.57;2.58;;;22.00;99.90;;;;;;4952665;28;20189;-88
2022/08/04 00:17:33;;;;;;;4.32;2.38;;;21.90;99.90;;;;;;4961975;28;20209;-88
2022/08/04 00:20:02;;;;;;;2.72;2.53;;;21.80;99.90;;;;;;4953645;28;20275;-88
2022/08/04 00:22:29;;;;;;;2.88;2.30;;;21.80;99.90;;;;;;4962454;28;20196;-88
2022/08/04 00:24:57;;;;;;;2.55;2.30;;;21.80;99.90;;;;;;4953337;28;20193;-89
2022/08/04 00:27:22;;;;;;;2.97;2.35;;;21.80;99.90;;;;;;4960624;28;20220;-87
2022/08/04 00:29:48;;;;;;;2.25;2.05;;;21.70;99.90;;;;;;4953249;28;20200;-89
2022/08/04 00:32:17;;;;;;;3.25;2.20;;;21.60;99.90;;;;;;4952563;28;20188;-88
2022/08/04 00:34:43;;;;;;;2.55;2.33;;;21.50;99.90;;;;;;4952966;28;20197;-89
2022/08/04 00:37:09;;;;;;;5.32;2.80;;;21.50;99.90;;;;;;4954034;28;20209;-88
2022/08/04 00:39:36;;;;;;;2.60;2.40;;;21.50;99.90;;;;;;4952890;28;20193;-89
2022/08/04 00:42:04;;;;;;;3.63;2.47;;;21.40;99.90;;;;;;4952639;28;20189;-87
2022/08/04 00:44:49;;;;;;;2.40;2.20;;;21.40;99.90;;;;;;4960384;28;20322;-88
2022/08/04 00:47:17;;;;;;;2.85;2.58;;;21.40;99.90;;;;;;4952423;28;20209;-88
2022/08/04 00:49:55;;;;;;;5.45;2.85;;;21.40;99.90;;;;;;4952709;28;20200;-89
2022/08/04 00:52:45;;;;;;;7.43;2.80;;;21.40;99.90;;;;;;4952013;28;20669;-87
2022/08/04 00:55:26;;;;;;;5.63;2.88;;;21.40;99.90;;;;;;4961870;28;20213;-87
2022/08/04 00:58:05;;;;;;;4.53;2.72;;;21.30;99.90;;;;;;4946001;28;20247;-88
2022/08/04 01:00:59;;;;;;;3.17;2.70;;;21.30;99.90;;;;;;4957789;28;20189;-87
2022/08/04 01:03:40;;;;;;;3.13;2.72;;;21.20;99.90;;;;;;4924607;28;20687;-88
2022/08/04 01:06:43;;;;;;;3.70;2.22;;;21.00;99.90;;;;;;4953231;28;20559;-88
2022/08/04 01:09:12;;;;;;;5.63;2.63;;;21.00;99.90;;;;;;4951889;28;20204;-88
2022/08/04 01:12:23;;;;;;;2.92;2.50;;;21.00;99.90;;;;;;4951838;28;20191;-88
2022/08/04 01:15:20;;;;;;;3.10;2.78;;;21.00;99.90;;;;;;4929855;28;20197;-87
2022/08/04 01:18:05;;;;;;;4.80;2.63;;;21.00;99.90;;;;;;4943099;28;20205;-88
2022/08/04 01:21:16;;;;;;;2.78;2.40;;;20.90;99.90;;;;;;4951230;28;20708;-87
2022/08/04 01:24:16;;;;;;;3.00;2.70;;;20.80;99.90;;;;;;4957671;28;20552;-88
2022/08/04 01:27:04;;;;;;;4.63;2.85;;;20.80;99.90;;;;;;4964195;28;20220;-87
2022/08/04 01:29:34;;;;;;;3.42;2.78;;;20.80;99.90;;;;;;4955556;28;20192;-88
2022/08/04 01:32:10;;;;;;;6.10;2.70;;;20.70;99.90;;;;;;4955394;28;20228;-87
2022/08/04 01:34:50;;;;;;;3.00;2.70;;;20.70;99.90;;;;;;4944518;28;20201;-87
2022/08/04 01:37:19;;;;;;;4.15;3.05;;;20.70;99.90;;;;;;4951253;28;20239;-87
2022/08/04 01:40:01;;;;;;;3.78;3.13;;;20.80;99.90;;;;;;4951767;28;20193;-88
2022/08/04 01:42:30;;;;;;;4.40;2.90;;;20.70;99.90;;;;;;4950937;28;20184;-88
2022/08/04 01:44:59;;;;;;;3.17;2.88;;;20.70;99.90;;;;;;5421888;23;20303;-87
2022/08/04 01:47:28;;;;;;;4.72;2.72;;;20.60;99.90;;;;;;4994341;28;20218;-87
2022/08/04 01:50:10;;;;;;;3.50;2.70;;;20.60;99.90;;;;;;4987164;28;20175;-88
2022/08/04 01:52:38;;;;;;;4.65;2.75;;;20.50;99.90;;;;;;4989451;28;20179;-87
2022/08/04 01:55:09;;;;;;;3.10;2.72;;;20.50;99.90;;;;;;4976677;28;20188;-88
2022/08/04 01:57:45;;;;;;;3.20;2.90;;;20.50;99.90;;;;;;4973843;28;20597;-88
2022/08/04 02:00:12;;;;;;;3.17;2.60;;;20.40;99.90;;;;;;4988508;28;20172;-88
2022/08/04 02:02:38;;;;;;;3.92;2.60;;;20.30;99.90;;;;;;4986280;28;20179;-90
2022/08/04 02:05:04;;;;;;;3.33;2.90;;;20.30;99.90;;;;;;4988406;28;20241;-93
2022/08/04 02:07:54;;;;;;;4.22;2.88;;;20.20;99.90;;;;;;4983056;28;20226;-92
2022/08/04 02:10:27;;;;;;;8.55;3.10;;;20.20;99.90;;;;;;4972872;28;20183;-93
2022/08/04 02:13:25;;;;;;;3.22;2.60;;;20.20;99.90;;;;;;4978644;28;20219;-96
2022/08/04 02:16:10;;;;;;;4.07;2.70;;;20.20;99.90;;;;;;4970630;28;20184;-87
2022/08/04 02:18:48;;;;;;;4.85;2.78;;;20.20;99.90;;;;;;4981256;28;20194;-87
2022/08/04 02:21:19;;;;;;;4.75;2.88;;;20.20;99.90;;;;;;4988665;28;20183;-86
2022/08/04 02:23:50;;;;;;;3.55;2.80;;;20.10;99.90;;;;;;4969029;28;20316;-87
2022/08/04 02:26:20;;;;;;;5.55;3.05;;;20.10;99.90;;;;;;4981181;28;20274;-87
2022/08/04 02:29:12;;;;;;;4.65;2.90;;;20.10;99.90;;;;;;4973414;28;20217;-88
2022/08/04 02:31:47;;;;;;;7.22;2.97;;;20.00;99.90;;;;;;4992434;28;20180;-85
2022/08/04 02:34:51;;;;;;;3.50;3.20;;;20.00;99.90;;;;;;4959028;28;20258;-86
2022/08/04 02:37:18;;;;;;;4.38;2.83;;;20.00;99.90;;;;;;4963911;28;20319;-87
2022/08/04 02:39:46;;;;;;;5.35;2.80;;;20.00;99.90;;;;;;4959174;28;20670;-87
2022/08/04 02:42:13;;;;;;;5.18;2.67;;;19.90;99.90;;;;;;4979470;28;20493;-87
2022/08/04 02:44:40;;;;;;;3.17;2.88;;;19.90;99.90;;;;;;4976878;28;20235;-86
2022/08/04 02:47:08;;;;;;;3.95;2.72;;;19.90;99.90;;;;;;4978273;28;20299;-86
2022/08/04 02:49:38;;;;;;;4.90;3.20;;;19.90;99.90;;;;;;4986164;28;20639;-86
2022/08/04 02:52:09;;;;;;;4.78;3.03;;;19.80;99.90;;;;;;4970180;28;20185;-86
2022/08/04 02:54:39;;;;;;;3.53;3.10;;;19.70;99.90;;;;;;4964647;28;20189;-87
2022/08/04 02:57:13;;;;;;;4.47;3.10;;;19.70;99.90;;;;;;4962939;28;20200;-91
2022/08/04 02:59:58;;;;;;;3.85;3.17;;;19.70;99.90;;;;;;4960084;28;20180;-95
2022/08/04 03:03:02;;;;;;;3.17;2.85;;;19.70;99.90;;;;;;4978220;28;20180;-86
2022/08/04 03:05:39;;;;;;;3.47;2.83;;;19.80;99.90;;;;;;4962866;28;20195;-86
2022/08/04 03:08:14;;;;;;;5.05;3.25;;;19.80;99.90;;;;;;4996266;28;20733;-86
2022/08/04 03:11:04;;;;;;;3.38;3.08;;;19.80;99.90;;;;;;4977087;28;20176;-87
2022/08/04 03:13:48;;;;;;;4.97;2.80;;;19.80;99.90;;;;;;4983479;28;20578;-86
2022/08/04 03:16:32;;;;;;;3.45;3.15;;;19.80;99.90;;;;;;4983631;28;20909;-88
2022/08/04 03:19:28;;;;;;;6.38;3.42;;;19.80;99.90;;;;;;4983523;28;20203;-86
2022/08/04 03:22:22;;;;;;;6.07;3.35;;;19.80;99.90;;;;;;4995800;28;20172;-87
2022/08/04 03:25:25;;;;;;;5.70;2.97;;;19.70;99.90;;;;;;4976023;28;20275;-86
2022/08/04 03:28:23;;;;;;;4.35;3.17;;;19.60;99.90;;;;;;4976567;28;20243;-87
2022/08/04 03:31:09;;;;;;;3.40;3.10;;;19.60;99.90;;;;;;4976235;28;20172;-86
2022/08/04 03:33:45;;;;;;;5.10;3.33;;;19.60;99.90;;;;;;4994813;28;20175;-86
2022/08/04 03:36:44;;;;;;;4.82;3.55;;;19.60;99.90;;;;;;4973995;28;20267;-85
2022/08/04 03:39:22;;;;;;;4.25;3.30;;;19.60;99.90;;;;;;4960303;28;20200;-85
2022/08/04 03:42:08;;;;;;;4.85;3.05;;;19.60;99.90;;;;;;4972715;28;20238;-84
2022/08/04 03:45:07;;;;;;;4.55;3.13;;;19.70;99.90;;;;;;4978832;28;20348;-86
2022/08/04 03:48:01;;;;;;;4.25;3.25;;;19.70;99.90;;;;;;4997067;28;20609;-86
2022/08/04 03:54:17;;;;;;;4.95;3.10;;;19.70;99.90;;;;;;4997531;28;20198;-86
2022/08/04 03:57:03;;;;;;;5.15;3.05;;;19.70;99.90;;;;;;4979338;28;20218;-86
2022/08/04 04:00:14;;;;;;;6.20;3.65;;;19.60;99.90;;;;;;4965494;28;20196;-86
2022/08/04 04:03:31;;;;;;;3.20;2.88;;;19.60;99.90;;;;;;4954706;28;20192;-86
2022/08/04 04:06:27;;;;;;;4.28;3.42;;;19.60;99.90;;;;;;4954982;28;20199;-86
2022/08/04 04:09:20;;;;;;;6.22;3.30;;;19.60;99.90;;;;;;4979245;28;20208;-87
2022/08/04 04:12:04;;;;;;;4.60;3.25;;;19.60;99.90;;;;;;4996725;28;20175;-87
2022/08/04 04:15:07;;;;;;;4.95;3.88;;;19.60;99.90;;;;;;4979389;28;20500;-87
2022/08/04 04:18:21;;;;;;;5.57;3.08;;;19.50;99.90;;;;;;4979682;28;20214;-88
2022/08/04 04:20:58;;;;;;;5.50;3.00;;;19.60;99.90;;;;;;4960088;28;20169;-85
2022/08/04 04:23:46;;;;;;;5.18;3.20;;;19.60;99.90;;;;;;4959955;28;20181;-88
2022/08/04 04:26:31;;;;;;;5.18;3.20;;;19.60;99.90;;;;;;4977209;28;20483;-88
2022/08/04 04:29:15;;;;;;;3.97;3.25;;;19.50;99.90;;;;;;4980859;28;20243;-86
2022/08/04 04:32:03;;;;;;;7.07;3.58;;;19.50;99.90;;;;;;4975714;28;20172;-87
2022/08/04 04:34:39;;;;;;;12.32;3.35;;;19.60;99.90;;;;;;4974408;28;20834;-86
2022/08/04 04:37:31;;;;;;;5.72;3.13;;;19.60;99.90;;;;;;4979189;28;20179;-86
2022/08/04 04:40:21;;;;;;;7.63;3.40;;;19.60;99.90;;;;;;4996190;28;20641;-87
2022/08/04 04:43:00;;;;;;;4.53;3.00;;;19.50;99.90;;;;;;4978631;28;20603;-87
2022/08/04 04:45:59;;;;;;;3.67;3.22;;;19.50;99.90;;;;;;4977318;28;20228;-87
2022/08/04 04:48:43;;;;;;;4.90;3.10;;;19.50;99.90;;;;;;4978261;28;20250;-87
2022/08/04 04:51:25;;;;;;;5.75;3.40;;;19.50;99.90;;;;;;4978849;28;20168;-87
2022/08/04 04:53:55;;;;;;;4.07;3.35;;;19.50;99.90;;;;;;4959421;28;20309;-87
2022/08/04 04:56:37;;;;;;;5.00;3.15;;;19.50;99.90;;;;;;4960857;28;20643;-87
2022/08/04 04:59:09;;;;;;;4.35;3.42;;;19.60;99.90;;;;;;4994903;28;20175;-88
2022/08/04 05:01:44;;;;;;;4.72;3.33;;;19.60;99.90;;;;;;4978792;28;20172;-86
2022/08/04 05:04:48;;;;;;;5.88;3.80;;;19.70;99.90;;;;;;4978855;28;20201;-88
2022/08/04 05:07:51;;;;;;;7.75;3.47;;;19.80;99.90;;;;;;4974005;28;20223;-89
2022/08/04 05:10:50;;;;;;;4.75;2.90;;;19.90;99.90;;;;;;4998440;28;20183;-90
2022/08/04 05:13:41;;;;;;;3.30;3.00;;;20.00;99.90;;;;;;4978827;28;20201;-91
2022/08/04 05:16:12;;;;;;;4.30;3.20;;;20.00;99.90;;;;;;4959783;28;20181;-90
2022/08/04 05:18:44;;;;;;;3.75;3.38;;;20.10;99.90;;;;;;4977932;28;20176;-89
2022/08/04 05:21:48;;;;;;;4.10;3.03;;;20.10;99.90;;;;;;4979199;28;20633;-90
2022/08/04 05:24:17;;;;;;;4.43;3.22;;;20.20;99.90;;;;;;4975840;28;20271;-89
2022/08/04 05:26:47;;;;;;;3.42;2.92;;;20.30;99.90;;;;;;4971098;28;20212;-88
2022/08/04 05:29:29;;;;;;;6.03;3.08;;;20.40;99.90;;;;;;4995727;28;20275;-88
2022/08/04 05:31:56;;;;;;;3.95;3.35;;;20.50;99.90;;;;;;4978594;28;20183;-90
2022/08/04 05:34:27;;;;;;;3.00;2.50;;;20.50;99.90;;;;;;4979130;28;20179;-89
2022/08/04 05:37:00;;;;;;;4.30;3.08;;;20.60;99.90;;;;;;4970890;28;20218;-89
2022/08/04 05:39:28;;;;;;;3.13;2.80;;;20.70;99.90;;;;;;4977344;28;20638;-91
2022/08/04 05:41:55;;;;;;;4.07;3.10;;;20.70;99.90;;;;;;4978456;28;20175;-90
2022/08/04 05:44:23;;;;;;;6.15;2.80;;;20.80;99.90;;;;;;4978479;28;20299;-90
2022/08/04 05:46:54;;;;;;;3.58;2.90;;;20.90;99.90;;;;;;4978232;28;20180;-89
2022/08/04 05:49:24;;;;;;;5.22;2.40;;;20.90;99.90;;;;;;4978885;28;20195;-92
2022/08/04 05:51:54;;;;;;;3.28;2.95;;;21.00;99.90;;;;;;4979101;28;20187;-93
2022/08/04 05:54:21;;;;;;;5.05;2.30;;;21.00;99.90;;;;;;4996015;28;20175;-90
2022/08/04 05:56:48;;;;;;;4.20;2.60;;;21.10;99.90;;;;;;4994245;28;20237;-88
2022/08/04 05:59:14;;;;;;;3.88;2.63;;;21.10;99.90;;;;;;4977968;28;20215;-89
2022/08/04 06:01:41;;;;;;;3.08;2.47;;;21.20;99.90;;;;;;4988175;28;20483;-89
2022/08/04 06:04:08;;;;;;;3.95;2.33;;;21.20;99.90;;;;;;4978204;28;20207;-90
2022/08/04 06:06:34;;;;;;;5.25;2.80;;;21.30;99.90;;;;;;4978313;28;20282;-90
2022/08/04 06:09:02;;;;;;;4.32;2.92;;;21.40;99.90;;;;;;4978147;28;20223;-88
2022/08/04 06:11:29;;;;;;;4.07;3.00;;;21.50;99.90;;;;;;4977908;28;20180;-89
2022/08/04 06:14:01;;;;;;;2.85;2.25;;;21.50;99.90;;;;;;4978017;28;20222;-89
2022/08/04 06:16:39;;;;;;;8.05;3.00;;;21.60;99.90;;;;;;4978114;28;20199;-89
2022/08/04 06:19:14;;;;;;;3.78;3.17;;;21.70;99.90;;;;;;4994913;28;20234;-90
2022/08/04 06:21:47;;;;;;;3.42;3.05;;;21.80;99.90;;;;;;4978210;28;20199;-92
2022/08/04 06:24:17;;;;;;;4.68;2.38;;;21.90;99.90;;;;;;4977898;28;20180;-92
2022/08/04 06:26:44;;;;;;;4.25;2.47;;;22.00;99.90;;;;;;4977890;28;20615;-94
2022/08/04 06:29:34;;;;;;;2.85;2.53;;;22.10;99.90;;;;;;4995719;28;20226;-92
2022/08/04 06:32:02;;;;;;;4.88;3.28;;;22.20;99.90;;;;;;4978771;28;20180;-89
2022/08/04 06:34:29;;;;;;;5.00;2.92;;;22.30;99.90;;;;;;4977726;28;20218;-90
2022/08/04 06:36:57;;;;;;;2.60;2.15;;;22.30;99.90;;;;;;4977271;28;20238;-90
2022/08/04 06:39:24;;;;;;;3.30;2.38;;;22.50;99.90;;;;;;4978147;28;20184;-91
2022/08/04 06:41:52;;;;;;;2.42;2.20;;;22.60;99.90;;;;;;4969840;28;20188;-91
2022/08/04 06:44:20;;;;;;;3.13;2.20;;;22.80;99.90;;;;;;4976694;28;20223;-95
2022/08/04 06:46:47;;;;;;;5.85;2.40;;;22.90;99.90;;;;;;4977427;28;20886;-89
2022/08/04 06:49:14;;;;;;;2.38;1.98;;;23.00;99.90;;;;;;4977711;28;20202;-88
2022/08/04 06:51:41;;;;;;;4.20;2.58;;;23.10;99.90;;;;;;4977173;28;20184;-86
2022/08/04 06:54:07;;;;;;;3.08;2.03;;;23.30;99.90;;;;;;4977454;28;20190;-88
2022/08/04 06:56:34;;;;;;;4.22;2.22;;;23.40;99.70;;;;;;4976904;28;20176;-91
2022/08/04 06:59:02;;;;;;;3.97;2.30;;;23.50;99.70;;;;;;4976845;28;20517;-88
2022/08/04 07:01:29;;;;;;;3.80;2.45;;;23.70;99.10;;;;;;4988123;28;20274;-86
2022/08/04 07:03:55;;;;;;;5.38;2.30;;;23.80;99.30;;;;;;4977429;28;20186;-89
2022/08/04 07:06:24;;;;;;;9.30;2.42;;;24.00;98.90;;;;;;4977247;28;20183;-91
2022/08/04 07:08:50;;;;;;;2.45;2.10;;;24.10;98.70;;;;;;4959853;28;20303;-90
2022/08/04 07:11:18;;;;;;;2.60;2.40;;;24.20;98.20;;;;;;4961760;28;20177;-87
2022/08/04 07:13:45;;;;;;;3.88;2.30;;;24.40;99.10;;;;;;4980212;28;20191;-90
2022/08/04 07:16:13;;;;;;;9.23;2.58;;;24.50;97.80;;;;;;4980987;28;20227;-89
2022/08/04 07:18:39;;;;;;;3.65;2.10;;;24.70;97.60;;;;;;4981411;28;20622;-89
2022/08/04 07:21:07;;;;;;;4.70;2.30;;;24.80;97.00;;;;;;4998197;28;20198;-90
2022/08/04 07:23:33;;;;;;;4.63;2.30;;;24.90;96.30;;;;;;4980823;28;20653;-89
2022/08/04 07:25:59;;;;;;;2.67;1.95;;;25.00;96.20;;;;;;4980694;28;20179;-89
2022/08/04 07:28:27;;;;;;;4.63;1.90;;;25.00;95.80;;;;;;4980208;28;20670;-87
2022/08/04 07:30:57;;;;;;;7.53;1.98;;;25.10;95.20;;;;;;4980877;28;20272;-89
2022/08/04 07:33:24;;;;;;;2.40;1.85;;;25.20;95.70;;;;;;4980302;28;20212;-90
2022/08/04 07:35:53;;;;;;;4.20;2.35;;;25.50;94.80;;;;;;4977888;28;20191;-87
2022/08/04 07:38:18;;;;;;;4.93;2.00;;;25.70;93.40;;;;;;4973182;28;20192;-88
2022/08/04 07:40:49;;;;;;;5.32;1.80;;;26.00;93.40;;;;;;4960952;28;20510;-92
2022/08/04 07:43:18;;;;;;;5.75;1.73;;;26.20;93.10;;;;;;4967251;28;20673;-88
2022/08/04 07:45:44;;;;;;;4.75;1.70;;;26.40;92.60;;;;;;4979903;28;20399;-90
2022/08/04 07:48:10;;;;;;;2.88;1.73;;;26.50;92.50;;;;;;4979664;28;20222;-88
2022/08/04 07:50:39;;;;;;;2.47;1.80;;;26.70;92.20;;;;;;4980160;28;20207;-87
2022/08/04 07:53:06;;;;;;;4.00;1.70;;;26.90;92.00;;;;;;4979958;28;20203;-89
2022/08/04 07:55:31;;;;;;;2.50;1.60;;;27.10;91.60;;;;;;4998808;28;20183;-88
2022/08/04 07:57:59;;;;;;;3.05;1.90;;;27.20;90.80;;;;;;4986253;28;20203;-88
2022/08/04 08:00:25;;;;;;;8.70;2.00;;;27.40;91.30;;;;;;4979524;28;20215;-87
2022/08/04 08:02:53;;;;;;;7.90;2.10;;;27.60;91.00;;;;;;4980259;28;20265;-90
2022/08/04 08:05:20;;;;;;;3.22;1.77;;;27.80;89.50;;;;;;4980043;28;20273;-90
2022/08/04 08:07:50;;;;;;;1.80;1.50;;;27.90;90.10;;;;;;4979007;28;20223;-88
2022/08/04 08:10:18;;;;;;;7.75;1.98;;;28.10;88.70;;;;;;4979782;28;20582;-88
2022/08/04 08:12:44;;;;;;;1.73;1.60;;;28.30;90.10;;;;;;4980310;28;20176;-89
2022/08/04 08:15:13;;;;;;;3.60;1.58;;;28.40;88.60;;;;;;4979703;28;20184;-87
2022/08/04 08:17:39;;;;;;;3.78;1.48;;;28.50;88.60;;;;;;4979636;28;20182;-90
2022/08/04 08:20:16;;;;;;;3.15;1.60;;;28.60;88.20;;;;;;4979639;28;20188;-89
2022/08/04 08:22:42;;;;;;;2.45;1.40;;;28.70;86.40;;;;;;4968754;28;20187;-85
2022/08/04 08:25:08;;;;;;;1.42;1.20;;;29.00;87.40;;;;;;4960103;28;20185;-87
2022/08/04 08:27:38;;;;;;;2.70;1.60;;;29.10;88.90;;;;;;4978020;28;20215;-89
2022/08/04 08:30:05;;;;;;;1.90;1.55;;;29.30;86.30;;;;;;4979590;28;20183;-85
2022/08/04 08:32:31;;;;;;;2.63;1.38;;;29.40;87.40;;;;;;4978916;28;20183;-85
2022/08/04 08:34:56;;;;;;;1.80;1.63;;;29.50;84.20;;;;;;4979348;28;20180;-87
2022/08/04 08:37:32;;;;;;;3.83;1.55;;;29.70;86.50;;;;;;4978799;28;20187;-89
2022/08/04 08:40:23;;;;;;;5.30;1.65;;;29.80;83.90;;;;;;4978634;28;20225;-84
2022/08/04 08:43:10;;;;;;;2.03;1.50;;;30.00;84.00;;;;;;4978594;28;20172;-87
2022/08/04 08:46:14;;;;;;;3.47;1.50;;;30.10;83.40;;;;;;4996348;28;20225;-87
2022/08/04 08:48:54;;;;;;;1.75;1.50;;;30.30;81.20;;;;;;4976236;28;20218;-88
2022/08/04 08:51:35;;;;;;;2.15;1.80;;;30.50;80.70;;;;;;4968443;28;20610;-85
2022/08/04 08:54:09;;;;;;;2.58;1.45;;;30.60;82.40;;;;;;4971027;28;20184;-89
2022/08/04 08:57:09;;;;;;;2.63;1.33;;;30.80;80.20;;;;;;4978946;28;20558;-89
2022/08/04 08:59:52;;;;;;;3.53;1.50;;;30.90;77.40;;;;;;4961694;28;20631;-89
2022/08/04 09:02:43;;;;;;;4.18;1.60;;;31.00;78.00;;;;;;4960210;28;20207;-89
2022/08/04 09:05:29;;;;;;;2.80;1.45;;;31.00;78.70;;;;;;4962608;28;20213;-87
2022/08/04 09:08:27;;;;;;;3.47;1.35;;;31.20;79.80;;;;;;4979329;28;20305;-93
2022/08/04 09:11:17;;;;;;;1.98;1.50;;;31.40;78.90;;;;;;4978868;28;20657;-90
2022/08/04 09:13:53;;;;;;;1.65;1.25;;;31.60;76.90;;;;;;4970089;28;20700;-92
2022/08/04 09:16:41;;;;;;;2.67;1.40;;;31.70;77.60;;;;;;4959403;28;20172;-84
2022/08/04 09:19:18;;;;;;;1.85;1.15;;;31.80;77.50;;;;;;4976513;28;20168;-85
2022/08/04 09:21:49;;;;;;;1.98;1.65;;;31.90;76.60;;;;;;4959353;28;20214;-85
2022/08/04 09:24:42;;;;;;;1.55;1.30;;;32.00;74.30;;;;;;4976630;28;20251;-90
2022/08/04 09:27:19;;;;;;;2.83;1.35;;;32.10;74.00;;;;;;4976202;28;20215;-91
2022/08/04 09:30:06;;;;;;;2.00;1.55;;;32.30;74.80;;;;;;4959367;28;20183;-90
2022/08/04 09:32:58;;;;;;;3.22;1.20;;;32.40;70.60;;;;;;4958509;28;20190;-87
2022/08/04 09:36:09;;;;;;;3.67;1.35;;;32.50;71.60;;;;;;4973894;28;20184;-87
2022/08/04 09:38:55;;;;;;;1.75;1.20;;;32.50;73.50;;;;;;4949270;28;20673;-90
2022/08/04 09:41:48;;;;;;;2.00;1.27;;;32.70;72.50;;;;;;4975385;28;20211;-89
2022/08/04 09:44:20;;;;;;;2.35;0.90;;;32.90;69.70;;;;;;4958672;28;20227;-89
2022/08/04 09:46:51;;;;;;;1.38;1.13;;;33.00;68.60;;;;;;4959084;28;20184;-92
2022/08/04 09:49:28;;;;;;;2.65;1.10;;;33.10;69.40;;;;;;4970502;28;20191;-94
2022/08/04 09:52:06;;;;;;;1.92;1.40;;;33.20;69.30;;;;;;4978201;28;20163;-87
2022/08/04 09:54:43;;;;;;;2.17;1.50;;;33.30;68.90;;;;;;4977662;28;20214;-87
2022/08/04 09:57:25;;;;;;;4.55;1.42;;;33.40;67.80;;;;;;4977344;28;20277;-91
2022/08/04 10:00:02;;;;;;;1.30;1.20;;;33.40;69.20;;;;;;4978175;28;20171;-87
2022/08/04 10:02:43;;;;;;;2.45;1.20;;;33.40;68.60;;;;;;4970566;28;20582;-86
2022/08/04 10:05:19;;;;;;;2.25;1.15;;;33.40;67.70;;;;;;4978722;28;20183;-88
2022/08/04 10:08:24;;;;;;;2.95;1.20;;;33.50;66.20;;;;;;4977680;28;20672;-86
2022/08/04 10:11:11;;;;;;;3.60;1.20;;;33.50;67.70;;;;;;4972674;28;20195;-91
2022/08/04 10:13:45;;;;;;;7.03;1.35;;;33.50;65.90;;;;;;4977560;28;20182;-87
2022/08/04 10:16:36;;;;;;;6.32;1.35;;;33.50;65.10;;;;;;4995377;28;20178;-90
2022/08/04 10:19:25;;;;;;;1.63;0.90;;;33.40;66.60;;;;;;4977564;28;20163;-89
2022/08/04 10:21:55;;;;;;;2.85;1.25;;;33.40;66.90;;;;;;4995216;28;20167;-94
2022/08/04 10:24:46;;;;;;;1.42;1.25;;;33.40;67.90;;;;;;4972332;28;20627;-90
2022/08/04 10:27:16;;;;;;;1.45;1.35;;;33.30;67.10;;;;;;4958994;28;20251;-90
2022/08/04 10:29:42;;;;;;;2.80;1.10;;;33.30;67.10;;;;;;4958902;28;20176;-94
2022/08/04 10:32:41;;;;;;;2.28;1.38;;;33.40;68.00;;;;;;4980009;28;20179;-89
2022/08/04 10:35:16;;;;;;;3.33;1.30;;;33.40;69.10;;;;;;4977999;28;20237;-92
2022/08/04 10:38:03;;;;;;;2.72;1.30;;;33.40;66.80;;;;;;4968152;28;20191;-91
2022/08/04 10:40:35;;;;;;;2.75;1.30;;;33.40;67.60;;;;;;4958875;28;20881;-90
2022/08/04 10:43:39;;;;;;;1.60;1.20;;;33.40;67.50;;;;;;4980421;28;20163;-91
2022/08/04 10:46:13;;;;;;;1.50;1.27;;;33.50;68.30;;;;;;4979200;28;20673;-89
2022/08/04 10:49:02;;;;;;;2.63;1.33;;;33.60;67.80;;;;;;4995220;28;20209;-90
2022/08/04 10:51:48;;;;;;;5.72;1.42;;;33.70;67.50;;;;;;4974344;28;20190;-89
2022/08/04 10:54:28;;;;;;;1.65;1.35;;;33.70;67.20;;;;;;4972589;28;20627;-90
2022/08/04 10:57:33;;;;;;;1.80;1.25;;;33.90;65.90;;;;;;4966379;28;20601;-88
2022/08/04 11:00:08;;;;;;;2.03;1.38;;;34.10;67.00;;;;;;4919524;28;20183;-92
2022/08/04 11:02:57;;;;;;;1.20;1.10;;;34.20;66.20;;;;;;4981805;28;20179;-88
2022/08/04 11:05:46;;;;;;;1.92;1.40;;;34.30;65.80;;;;;;4981286;28;20191;-89
2022/08/04 11:08:16;;;;;;;4.85;1.55;;;34.30;65.70;;;;;;4981388;28;20211;-91
2022/08/04 11:10:47;;;;;;;1.95;1.30;;;34.20;65.90;;;;;;4968343;28;20194;-91
2022/08/04 11:13:16;;;;;;;1.42;1.30;;;34.00;66.40;;;;;;4978898;28;20191;-88
2022/08/04 11:15:54;;;;;;;1.75;1.30;;;33.70;67.10;;;;;;4961902;28;20187;-88
2022/08/04 11:18:58;;;;;;;2.55;1.40;;;33.50;66.50;;;;;;4981454;28;20676;-92
2022/08/04 11:21:34;;;;;;;1.45;1.27;;;33.40;68.00;;;;;;4958943;28;20189;-87
2022/08/04 11:24:45;;;;;;;1.55;1.25;;;33.40;67.20;;;;;;4998609;28;20175;-86
2022/08/04 11:27:24;;;;;;;2.17;1.30;;;33.50;67.90;;;;;;4972126;28;20192;-90
2022/08/04 11:30:04;;;;;;;1.30;1.20;;;33.50;68.50;;;;;;4962175;28;20215;-89
2022/08/04 11:32:58;;;;;;;1.92;1.35;;;33.80;67.80;;;;;;4972086;28;20689;-93
2022/08/04 11:35:33;;;;;;;1.42;1.23;;;34.00;66.70;;;;;;4973933;28;20215;-91
2022/08/04 11:38:10;;;;;;;2.72;1.50;;;33.90;65.60;;;;;;4981499;28;20183;-88
2022/08/04 11:40:43;;;;;;;2.42;1.40;;;33.80;66.90;;;;;;4998561;28;20159;-91
2022/08/04 11:43:21;;;;;;;2.38;1.50;;;33.80;66.90;;;;;;4998021;28;20187;-87
2022/08/04 11:46:00;;;;;;;1.75;1.40;;;33.90;67.40;;;;;;4977690;28;20238;-92
2022/08/04 11:48:36;;;;;;;4.38;1.20;;;34.10;66.00;;;;;;4973834;28;20216;-87
2022/08/04 11:51:04;;;;;;;2.22;1.30;;;34.10;66.90;;;;;;4977370;28;20188;-88
2022/08/04 11:53:38;;;;;;;3.15;1.48;;;34.10;67.10;;;;;;4977376;28;20248;-91
2022/08/04 11:56:09;;;;;;;3.38;1.25;;;34.00;66.50;;;;;;4977235;28;20164;-92
2022/08/04 11:58:35;;;;;;;2.00;1.52;;;33.90;67.30;;;;;;4992354;28;20259;-90
2022/08/04 12:01:25;;;;;;;3.10;1.30;;;33.80;67.70;;;;;;4990232;28;20223;-92
2022/08/04 12:04:36;;;;;;;1.48;1.30;;;33.70;67.40;;;;;;4976554;28;20686;-87
2022/08/04 12:07:28;;;;;;;4.30;1.38;;;33.60;66.70;;;;;;4976940;28;20180;-91
2022/08/04 12:10:27;;;;;;;1.38;1.10;;;33.70;68.60;;;;;;4987303;28;20191;-89
2022/08/04 12:13:32;;;;;;;1.48;1.38;;;33.80;67.00;;;;;;4970887;28;20682;-90
2022/08/04 12:16:21;;;;;;;3.17;1.30;;;33.90;67.00;;;;;;4957193;28;20251;-88
2022/08/04 12:19:04;;;;;;;1.40;1.30;;;34.00;67.90;;;;;;4976559;28;20176;-90
2022/08/04 12:21:49;;;;;;;1.33;1.20;;;34.30;66.30;;;;;;4977096;28;20199;-90
2022/08/04 12:24:21;;;;;;;5.78;1.40;;;34.60;67.50;;;;;;4979902;28;20188;-89
2022/08/04 12:26:57;;;;;;;4.00;1.35;;;34.80;65.80;;;;;;4974804;28;20220;-90
2022/08/04 12:29:27;;;;;;;1.85;1.40;;;35.10;66.80;;;;;;4975438;28;20611;-90
2022/08/04 12:31:59;;;;;;;3.97;1.30;;;35.10;64.50;;;;;;4977464;28;20658;-90
2022/08/04 12:34:28;;;;;;;2.38;1.40;;;35.10;64.30;;;;;;4973860;28;20250;-90
2022/08/04 12:37:16;;;;;;;4.70;1.25;;;35.30;64.40;;;;;;4973043;28;20187;-90
2022/08/04 12:39:45;;;;;;;2.80;1.33;;;35.60;65.00;;;;;;4966506;28;20187;-94
2022/08/04 12:42:57;;;;;;;1.70;1.25;;;35.90;64.50;;;;;;4978067;28;20180;-86
2022/08/04 12:45:23;;;;;;;2.45;1.23;;;36.00;63.70;;;;;;4950368;28;20223;-89
2022/08/04 12:47:51;;;;;;;2.28;1.40;;;36.20;62.50;;;;;;4961313;28;20238;-88
2022/08/04 12:50:19;;;;;;;1.73;1.20;;;36.10;62.80;;;;;;4959724;28;20212;-88
2022/08/04 12:52:53;;;;;;;1.10;1.00;;;35.80;62.40;;;;;;4962008;28;20219;-90
2022/08/04 12:55:23;;;;;;;2.35;1.02;;;35.70;62.60;;;;;;4975688;28;20179;-88
2022/08/04 12:57:51;;;;;;;2.17;1.20;;;35.70;62.90;;;;;;4955055;28;20192;-90
2022/08/04 13:00:25;;;;;;;1.13;0.95;;;35.50;63.50;;;;;;4948659;28;20642;-89
2022/08/04 13:02:53;;;;;;;3.00;1.25;;;35.20;63.00;;;;;;4969626;28;20184;-92
2022/08/04 13:05:21;;;;;;;2.40;1.30;;;35.10;62.90;;;;;;4956670;28;20188;-92
2022/08/04 13:07:50;;;;;;;2.55;1.10;;;35.30;64.20;;;;;;4955156;28;20682;-88
2022/08/04 13:10:19;;;;;;;1.83;0.98;;;35.50;63.20;;;;;;4956223;29;20242;-93
2022/08/04 13:12:55;;;;;;;1.65;1.20;;;35.60;64.20;;;;;;4954915;28;20184;-89
2022/08/04 13:15:23;;;;;;;1.67;1.20;;;35.80;63.30;;;;;;4955694;29;20192;-91
2022/08/04 13:17:55;;;;;;;1.83;1.20;;;35.90;62.80;;;;;;4955423;28;20224;-88
2022/08/04 13:20:26;;;;;;;5.82;1.20;;;36.10;62.20;;;;;;4955846;29;20623;-91
2022/08/04 13:22:58;;;;;;;1.48;1.20;;;36.30;63.70;;;;;;4955594;28;20231;-87
2022/08/04 13:25:27;;;;;;;1.92;1.13;;;36.40;62.30;;;;;;4955626;29;20647;-92
2022/08/04 13:27:53;;;;;;;1.30;1.20;;;36.40;62.30;;;;;;4955521;29;20187;-91
2022/08/04 13:30:19;;;;;;;2.10;1.15;;;36.60;62.90;;;;;;4955599;29;20530;-93
2022/08/04 13:32:46;;;;;;;1.65;1.10;;;36.70;61.90;;;;;;4955471;29;20181;-89
2022/08/04 13:35:13;;;;;;;5.50;1.60;;;36.60;61.20;;;;;;4955028;28;20283;-90
2022/08/04 13:37:41;;;;;;;1.20;1.10;;;36.60;61.80;;;;;;4955842;29;20208;-90
2022/08/04 13:40:11;;;;;;;1.80;1.50;;;36.70;60.60;;;;;;4955300;29;20239;-91
2022/08/04 13:42:38;;;;;;;2.28;1.17;;;36.70;60.50;;;;;;4955291;29;20172;-89
2022/08/04 13:45:06;;;;;;;0.90;0.90;;;36.60;60.70;;;;;;4964443;28;20231;-88
2022/08/04 13:47:36;;;;;;;1.65;1.30;;;36.70;61.90;;;;;;4975887;28;20227;-86